PWSweather.com
Personal Weather Stations
Station Observations
BRANKSOME
Branksome, PooleGB BH12 1EF

BranksomePooleGB BH12 1EF

Lat: 50.7280546, Lon: -1.9122614

Elevation: 20

Station Type: Watson W-8681 Solar

http://branksomeweather.co.uk/index.php

Latest ConditionsUpdated 4:00:01 PM GMT Saturday, Nov 17, 2018
Currently Today's Max Today's Min Today's Average
Temperature 50.5°F10.3°C 52.3°F11.3°C 46.4°F8.0°C 49.0°F9.4°C
Dew Point 38.8°F3.8°C 49.0°F9.4°C 38.8°F3.8°C 44.3°F6.8°C
Winds 4.5 mph NE7.2 kmh NE 8.3 mph -13.4 kmh - - 4.5 mph 7.2 kmh
Wind Gusts 8.3 mph13.4 kmh 15.2 mph24.5 kmh - -
Humidity 64% 94% 62% 84%
Pressure 29.83 in1010.2 mb 29.88 in1011.9 mb 29.83 in1010.2 mb -
Precipitation - 0.01 in0.3 mm - -
Hour Temp Dew Point Humidity Winds Wind Gusts Pressure Precip Precip Rate Daily Precip Total
04:00 PM 50.5°F10.3°C 38.8°F3.8°C 64% 4.5 mph NE7.2 kmh NE 8.3 mph13.4 kmh 29.83 in1010.2 mb 0.00 in0.0 mm 0.00 in0.0 mm 0.01 in0.3 mm
03:30 PM 51.3°F10.7°C 39.5°F4.2°C 64% 6.9 mph NE11.1 kmh NE 8.3 mph13.4 kmh 29.83 in1010.2 mb 0.00 in0.0 mm 0.00 in0.0 mm 0.01 in0.3 mm
03:00 PM 51.8°F11.0°C 39.2°F4.0°C 62% 4.5 mph NE7.2 kmh NE 15.2 mph24.5 kmh 29.83 in1010.2 mb 0.00 in0.0 mm 0.00 in0.0 mm 0.01 in0.3 mm
02:30 PM 52.2°F11.2°C 41.2°F5.1°C 66% 7.6 mph NE12.2 kmh NE 9.8 mph15.8 kmh 29.84 in1010.5 mb 0.00 in0.0 mm 0.00 in0.0 mm 0.01 in0.3 mm
02:00 PM 52.3°F11.3°C 42.5°F5.8°C 69% 3.8 mph NE6.1 kmh NE 12.1 mph19.5 kmh 29.83 in1010.2 mb 0.00 in0.0 mm 0.00 in0.0 mm 0.01 in0.3 mm
01:30 PM 51.8°F11.0°C 42.0°F5.6°C 69% 5.4 mph NE8.7 kmh NE 15.2 mph24.5 kmh 29.83 in1010.2 mb 0.00 in0.0 mm 0.00 in0.0 mm 0.01 in0.3 mm
01:00 PM 51.8°F11.0°C 42.3°F5.7°C 70% 3.8 mph NE6.1 kmh NE 15.2 mph24.5 kmh 29.84 in1010.5 mb 0.00 in0.0 mm 0.00 in0.0 mm 0.01 in0.3 mm
12:30 PM 50.2°F10.1°C 41.9°F5.5°C 73% 8.3 mph NE13.4 kmh NE 14.5 mph23.3 kmh 29.85 in1010.8 mb 0.00 in0.0 mm 0.00 in0.0 mm 0.01 in0.3 mm
12:00 PM 48.9°F9.4°C 41.4°F5.2°C 75% 3.1 mph NE5.0 kmh NE 10.7 mph17.2 kmh 29.86 in1011.2 mb 0.00 in0.0 mm 0.00 in0.0 mm 0.01 in0.3 mm
11:30 AM 48.7°F9.3°C 41.5°F5.3°C 76% 6.0 mph NE9.7 kmh NE 13.6 mph21.9 kmh 29.86 in1011.2 mb 0.00 in0.0 mm 0.00 in0.0 mm 0.01 in0.3 mm
11:00 AM 48.6°F9.2°C 41.7°F5.4°C 77% 5.4 mph NE8.7 kmh NE 13.6 mph21.9 kmh 29.86 in1011.2 mb 0.00 in0.0 mm 0.00 in0.0 mm 0.01 in0.3 mm
10:30 AM 47.8°F8.8°C 42.0°F5.6°C 80% 4.5 mph ENE7.2 kmh ENE 13.0 mph20.9 kmh 29.87 in1011.5 mb 0.00 in0.0 mm 0.00 in0.0 mm 0.01 in0.3 mm
10:00 AM 47.7°F8.7°C 42.4°F5.8°C 82% 3.8 mph NE6.1 kmh NE 12.1 mph19.5 kmh 29.87 in1011.5 mb 0.00 in0.0 mm 0.00 in0.0 mm 0.01 in0.3 mm
09:30 AM 47.3°F8.5°C 43.6°F6.4°C 87% 3.8 mph NE6.1 kmh NE 9.8 mph15.8 kmh 29.88 in1011.9 mb 0.00 in0.0 mm 0.00 in0.0 mm 0.01 in0.3 mm
09:00 AM 46.9°F8.3°C 44.7°F7.1°C 92% 3.8 mph NE6.1 kmh NE 9.2 mph14.8 kmh 29.87 in1011.5 mb 0.00 in0.0 mm 0.00 in0.0 mm 0.01 in0.3 mm
08:30 AM 46.8°F8.2°C 45.1°F7.3°C 94% 4.5 mph NE7.2 kmh NE 9.2 mph14.8 kmh 29.86 in1011.2 mb 0.00 in0.0 mm 0.00 in0.0 mm 0.01 in0.3 mm
08:00 AM 46.4°F8.0°C 44.8°F7.1°C 94% 4.5 mph NE7.2 kmh NE 12.1 mph19.5 kmh 29.86 in1011.2 mb 0.00 in0.0 mm 0.00 in0.0 mm 0.01 in0.3 mm
07:30 AM 46.4°F8.0°C 44.8°F7.1°C 94% 4.5 mph NE7.2 kmh NE 7.6 mph12.2 kmh 29.85 in1010.8 mb 0.00 in0.0 mm 0.00 in0.0 mm 0.01 in0.3 mm
07:00 AM 46.4°F8.0°C 44.8°F7.1°C 94% 3.8 mph NE6.1 kmh NE 9.8 mph15.8 kmh 29.85 in1010.8 mb 0.00 in0.0 mm 0.00 in0.0 mm 0.01 in0.3 mm
06:30 AM 46.4°F8.0°C 44.8°F7.1°C 94% 3.8 mph NE6.1 kmh NE 7.6 mph12.2 kmh 29.84 in1010.5 mb 0.00 in0.0 mm 0.00 in0.0 mm 0.01 in0.3 mm
06:00 AM 46.4°F8.0°C 44.8°F7.1°C 94% 3.8 mph NE6.1 kmh NE 9.2 mph14.8 kmh 29.85 in1010.8 mb 0.00 in0.0 mm 0.00 in0.0 mm 0.01 in0.3 mm
05:30 AM 46.9°F8.3°C 45.3°F7.4°C 94% Calm Calm 7.6 mph12.2 kmh 29.84 in1010.5 mb 0.00 in0.0 mm 0.00 in0.0 mm 0.01 in0.3 mm
05:00 AM 47.1°F8.4°C 45.5°F7.5°C 94% 2.2 mph NE3.5 kmh NE 10.7 mph17.2 kmh 29.83 in1010.2 mb 0.00 in0.0 mm 0.00 in0.0 mm 0.01 in0.3 mm
04:30 AM 47.1°F8.4°C 45.5°F7.5°C 94% 5.4 mph NE8.7 kmh NE 9.2 mph14.8 kmh 29.84 in1010.5 mb 0.01 in0.3 mm 0.00 in0.0 mm 0.01 in0.3 mm
04:00 AM 47.8°F8.8°C 46.2°F7.9°C 94% 6.9 mph NE11.1 kmh NE 11.4 mph18.3 kmh 29.85 in1010.8 mb 0.01 in0.3 mm 0.02 in0.5 mm 0.01 in0.3 mm
03:30 AM 48.9°F9.4°C 47.0°F8.3°C 93% 3.8 mph NE6.1 kmh NE 9.2 mph14.8 kmh 29.85 in1010.8 mb 0.00 in0.0 mm 0.00 in0.0 mm 0.00 in0.0 mm
03:00 AM 49.8°F9.9°C 47.9°F8.8°C 93% 2.2 mph NE3.5 kmh NE 8.3 mph13.4 kmh 29.85 in1010.8 mb 0.00 in0.0 mm 0.00 in0.0 mm 0.00 in0.0 mm
02:30 AM 50.0°F10.0°C 47.8°F8.8°C 92% 5.4 mph NE8.7 kmh NE 7.6 mph12.2 kmh 29.85 in1010.8 mb 0.00 in0.0 mm 0.00 in0.0 mm 0.00 in0.0 mm
02:00 AM 50.2°F10.1°C 48.0°F8.9°C 92% 6.9 mph NE11.1 kmh NE 10.7 mph17.2 kmh 29.86 in1011.2 mb 0.00 in0.0 mm 0.00 in0.0 mm 0.00 in0.0 mm
01:30 AM 50.5°F10.3°C 48.3°F9.1°C 92% 4.5 mph NE7.2 kmh NE 9.2 mph14.8 kmh 29.86 in1011.2 mb 0.00 in0.0 mm 0.00 in0.0 mm 0.00 in0.0 mm
01:00 AM 50.7°F10.4°C 48.5°F9.2°C 92% 4.5 mph NE7.2 kmh NE 6.0 mph9.7 kmh 29.86 in1011.2 mb 0.00 in0.0 mm 0.00 in0.0 mm 0.00 in0.0 mm
12:30 AM 51.1°F10.6°C 48.8°F9.3°C 92% 3.8 mph NE6.1 kmh NE 5.4 mph8.7 kmh 29.86 in1011.2 mb 0.00 in0.0 mm 0.00 in0.0 mm 0.00 in0.0 mm
12:00 AM 51.3°F10.7°C 49.0°F9.4°C 92% 3.8 mph NE6.1 kmh NE 8.3 mph13.4 kmh 29.86 in1011.2 mb 0.00 in0.0 mm 0.00 in0.0 mm 0.00 in0.0 mm